X  Close Metar Aviation Weather Data     EHKD De Kooy Airport
Temperature
18°C Temperature
14°C Dewpoint
78% Humidity



Wind
35 KM/H
22 MPH
10 M/S
19 KTS



230°
SW
Current Conditions

Partly Cloudy Partly Cloudy
Pressure 1006.77 (hPa) - 29.73 (inHg)
Visibility 6 (mile) - 9.7 (km)
Airport
Airport-code EHKD

Location: De Kooy Airport
Distance: 34 (km)

Metar:
EHKD 160925Z AUTO 23019KT 190V260 9999 FEW017/// 18/14 Q1007 BLU FEW018 22020G25KT TEMPO 24020G35KT 4000 SHRA SCT015 SCT020CB BKN022

Time: 16-07-2024 11:25 CEST